sensor_id;sensor_type;location;lat;lon;timestamp;pressure;altitude;pressure_sealevel;temperature;humidity
51123;BME280;37162;41.724;13.346;2022-11-15T00:00:47;97120.38;;;17.32;59.52
51123;BME280;37162;41.724;13.346;2022-11-15T00:03:14;97113.56;;;17.29;59.93
51123;BME280;37162;41.724;13.346;2022-11-15T00:05:39;97109.84;;;17.30;59.68
51123;BME280;37162;41.724;13.346;2022-11-15T00:08:05;97116.88;;;17.31;59.76
51123;BME280;37162;41.724;13.346;2022-11-15T00:10:30;97100.00;;;17.24;59.94
51123;BME280;37162;41.724;13.346;2022-11-15T00:12:56;97116.03;;;17.31;59.84
51123;BME280;37162;41.724;13.346;2022-11-15T00:15:21;97110.88;;;17.29;59.93
51123;BME280;37162;41.724;13.346;2022-11-15T00:17:49;97102.25;;;17.27;59.98
51123;BME280;37162;41.724;13.346;2022-11-15T00:20:14;97115.19;;;17.30;59.79
51123;BME280;37162;41.724;13.346;2022-11-15T00:22:40;97114.38;;;17.30;59.71
51123;BME280;37162;41.724;13.346;2022-11-15T00:25:05;97107.00;;;17.25;59.62
51123;BME280;37162;41.724;13.346;2022-11-15T00:27:31;97114.63;;;17.28;59.75
51123;BME280;37162;41.724;13.346;2022-11-15T00:29:56;97108.44;;;17.28;59.59
51123;BME280;37162;41.724;13.346;2022-11-15T00:32:22;97109.13;;;17.23;59.70
51123;BME280;37162;41.724;13.346;2022-11-15T00:34:47;97115.88;;;17.26;59.36
51123;BME280;37162;41.724;13.346;2022-11-15T00:37:12;97112.19;;;17.27;59.30
51123;BME280;37162;41.724;13.346;2022-11-15T00:39:38;97111.31;;;17.26;59.42
51123;BME280;37162;41.724;13.346;2022-11-15T00:42:03;97116.69;;;17.26;59.29
51123;BME280;37162;41.724;13.346;2022-11-15T00:44:29;97109.13;;;17.23;59.36
51123;BME280;37162;41.724;13.346;2022-11-15T00:46:54;97111.31;;;17.26;59.43
51123;BME280;37162;41.724;13.346;2022-11-15T00:49:19;97109.69;;;17.25;59.35
51123;BME280;37162;41.724;13.346;2022-11-15T00:51:45;97105.38;;;17.24;59.44
51123;BME280;37162;41.724;13.346;2022-11-15T00:54:10;97098.44;;;17.17;59.22
51123;BME280;37162;41.724;13.346;2022-11-15T00:56:36;97104.31;;;17.25;59.51
51123;BME280;37162;41.724;13.346;2022-11-15T00:59:01;97092.88;;;17.18;59.50
51123;BME280;37162;41.724;13.346;2022-11-15T01:01:27;97101.63;;;17.25;59.37
51123;BME280;37162;41.724;13.346;2022-11-15T01:03:52;97113.19;;;17.26;59.36
51123;BME280;37162;41.724;13.346;2022-11-15T01:06:17;97107.81;;;17.26;59.27
51123;BME280;37162;41.724;13.346;2022-11-15T01:08:43;97102.47;;;17.26;59.36
51123;BME280;37162;41.724;13.346;2022-11-15T01:11:11;97107.81;;;17.26;59.29
51123;BME280;37162;41.724;13.346;2022-11-15T01:13:38;97102.47;;;17.26;59.36
51123;BME280;37162;41.724;13.346;2022-11-15T01:16:12;97104.94;;;17.27;59.14
51123;BME280;37162;41.724;13.346;2022-11-15T01:18:39;97104.31;;;17.25;59.22
51123;BME280;37162;41.724;13.346;2022-11-15T01:21:17;97104.31;;;17.25;59.18
51123;BME280;37162;41.724;13.346;2022-11-15T01:23:43;97092.06;;;17.18;59.03
51123;BME280;37162;41.724;13.346;2022-11-15T01:26:12;97092.53;;;17.26;59.15
51123;BME280;37162;41.724;13.346;2022-11-15T01:28:39;97103.28;;;17.26;59.09
51123;BME280;37162;41.724;13.346;2022-11-15T01:31:11;97099.78;;;17.26;58.96
51123;BME280;37162;41.724;13.346;2022-11-15T01:33:37;97099.78;;;17.26;59.15
51123;BME280;37162;41.724;13.346;2022-11-15T01:36:05;97090.09;;;17.25;58.97
51123;BME280;37162;41.724;13.346;2022-11-15T01:38:31;97097.09;;;17.26;58.85
51123;BME280;37162;41.724;13.346;2022-11-15T01:40:56;97094.41;;;17.26;59.09
51123;BME280;37162;41.724;13.346;2022-11-15T01:43:42;97097.09;;;17.26;58.83
51123;BME280;37162;41.724;13.346;2022-11-15T01:46:34;97090.91;;;17.25;58.65
51123;BME280;37162;41.724;13.346;2022-11-15T01:49:05;97085.53;;;17.25;58.78
51123;BME280;37162;41.724;13.346;2022-11-15T01:51:35;97092.78;;;17.25;58.83
51123;BME280;37162;41.724;13.346;2022-11-15T01:54:08;97093.38;;;17.27;58.89
51123;BME280;37162;41.724;13.346;2022-11-15T01:56:39;97086.34;;;17.26;59.04
51123;BME280;37162;41.724;13.346;2022-11-15T01:59:08;97077.34;;;17.20;59.12
51123;BME280;37162;41.724;13.346;2022-11-15T02:01:34;97057.59;;;17.15;59.11
51123;BME280;37162;41.724;13.346;2022-11-15T02:04:11;97080.97;;;17.26;58.98
51123;BME280;37162;41.724;13.346;2022-11-15T02:06:38;97084.47;;;17.26;58.98
51123;BME280;37162;41.724;13.346;2022-11-15T02:09:04;97077.47;;;17.25;59.08
51123;BME280;37162;41.724;13.346;2022-11-15T02:11:30;97072.09;;;17.25;58.96
51123;BME280;37162;41.724;13.346;2022-11-15T02:13:57;97070.34;;;17.19;59.01
51123;BME280;37162;41.724;13.346;2022-11-15T02:16:43;97078.53;;;17.24;58.85
51123;BME280;37162;41.724;13.346;2022-11-15T02:24:34;97065.34;;;17.23;58.33
51123;BME280;37162;41.724;13.346;2022-11-15T02:32:23;97056.91;;;17.19;58.48
51123;BME280;37162;41.724;13.346;2022-11-15T02:35:20;97063.09;;;17.20;58.75
51123;BME280;37162;41.724;13.346;2022-11-15T02:37:56;97055.47;;;17.17;58.75
51123;BME280;37162;41.724;13.346;2022-11-15T02:42:54;97046.63;;;17.16;58.73
51123;BME280;37162;41.724;13.346;2022-11-15T02:45:50;97054.66;;;17.16;58.46
51123;BME280;37162;41.724;13.346;2022-11-15T02:48:17;97043.34;;;17.14;58.76
51123;BME280;37162;41.724;13.346;2022-11-15T02:50:43;97037.03;;;17.08;58.59
51123;BME280;37162;41.724;13.346;2022-11-15T02:53:10;97026.50;;;17.07;58.71
51123;BME280;37162;41.724;13.346;2022-11-15T02:55:38;97038.56;;;17.16;58.71
51123;BME280;37162;41.724;13.346;2022-11-15T03:04:16;97038.56;;;17.16;58.50
51123;BME280;37162;41.724;13.346;2022-11-15T03:07:00;97037.75;;;17.16;58.43
51123;BME280;37162;41.724;13.346;2022-11-15T03:09:43;97048.47;;;17.16;58.29
51123;BME280;37162;41.724;13.346;2022-11-15T03:15:10;97047.44;;;17.17;58.06
51123;BME280;37162;41.724;13.346;2022-11-15T03:17:45;97049.09;;;17.18;58.09
51123;BME280;37162;41.724;13.346;2022-11-15T03:20:14;97047.22;;;17.18;58.10
51123;BME280;37162;41.724;13.346;2022-11-15T03:22:43;97041.84;;;17.18;57.96
51123;BME280;37162;41.724;13.346;2022-11-15T03:25:15;97040.44;;;17.16;57.85
51123;BME280;37162;41.724;13.346;2022-11-15T03:27:45;97040.66;;;17.14;57.74
51123;BME280;37162;41.724;13.346;2022-11-15T03:30:13;97044.53;;;17.18;58.05
51123;BME280;37162;41.724;13.346;2022-11-15T03:32:43;97038.13;;;17.19;57.94
51123;BME280;37162;41.724;13.346;2022-11-15T03:35:12;97035.66;;;17.18;57.93
51123;BME280;37162;41.724;13.346;2022-11-15T03:40:11;97035.66;;;17.18;57.86
51123;BME280;37162;41.724;13.346;2022-11-15T03:45:18;97039.38;;;17.17;58.16
51123;BME280;37162;41.724;13.346;2022-11-15T03:47:49;97044.75;;;17.17;57.98
51123;BME280;37162;41.724;13.346;2022-11-15T03:50:21;97037.38;;;17.12;58.22
51123;BME280;37162;41.724;13.346;2022-11-15T03:52:48;97046.63;;;17.16;58.37
51123;BME280;37162;41.724;13.346;2022-11-15T03:55:18;97051.78;;;17.18;58.27
51123;BME280;37162;41.724;13.346;2022-11-15T03:57:43;97050.13;;;17.17;58.22
51123;BME280;37162;41.724;13.346;2022-11-15T04:00:10;97044.97;;;17.15;57.99
51123;BME280;37162;41.724;13.346;2022-11-15T04:02:36;97047.09;;;17.13;58.28
51123;BME280;37162;41.724;13.346;2022-11-15T04:05:01;97054.66;;;17.16;58.06
51123;BME280;37162;41.724;13.346;2022-11-15T04:07:26;97049.28;;;17.16;58.14
51123;BME280;37162;41.724;13.346;2022-11-15T04:09:52;97045.56;;;17.17;58.13
51123;BME280;37162;41.724;13.346;2022-11-15T04:12:44;97044.75;;;17.17;58.00
51123;BME280;37162;41.724;13.346;2022-11-15T04:15:14;97041.25;;;17.16;58.30
51123;BME280;37162;41.724;13.346;2022-11-15T04:17:44;97039.63;;;17.15;58.10
51123;BME280;37162;41.724;13.346;2022-11-15T04:20:18;97036.94;;;17.15;58.23
51123;BME280;37162;41.724;13.346;2022-11-15T04:23:06;97036.13;;;17.15;57.92
51123;BME280;37162;41.724;13.346;2022-11-15T04:25:52;97027.31;;;17.07;57.83
51123;BME280;37162;41.724;13.346;2022-11-15T04:28:19;97035.28;;;17.14;57.71
51123;BME280;37162;41.724;13.346;2022-11-15T04:30:44;97031.78;;;17.14;57.86
51123;BME280;37162;41.724;13.346;2022-11-15T04:33:10;97040.91;;;17.13;57.66
51123;BME280;37162;41.724;13.346;2022-11-15T04:35:35;97040.66;;;17.14;57.71
51123;BME280;37162;41.724;13.346;2022-11-15T04:38:03;97034.69;;;17.12;57.83
51123;BME280;37162;41.724;13.346;2022-11-15T04:40:28;97026.63;;;17.12;57.81
51123;BME280;37162;41.724;13.346;2022-11-15T04:42:54;97032.84;;;17.13;58.01
51123;BME280;37162;41.724;13.346;2022-11-15T04:45:20;97032.00;;;17.12;58.04
51123;BME280;37162;41.724;13.346;2022-11-15T04:47:46;97028.50;;;17.11;58.02
51123;BME280;37162;41.724;13.346;2022-11-15T04:50:12;97019.63;;;17.11;58.29
51123;BME280;37162;41.724;13.346;2022-11-15T04:52:42;97024.19;;;17.10;57.96
51123;BME280;37162;41.724;13.346;2022-11-15T04:55:09;97014.50;;;17.09;57.63
51123;BME280;37162;41.724;13.346;2022-11-15T04:57:35;97011.00;;;17.09;57.85
51123;BME280;37162;41.724;13.346;2022-11-15T05:00:04;97012.06;;;17.08;57.77
51123;BME280;37162;41.724;13.346;2022-11-15T05:02:30;97010.25;;;17.02;57.69
51123;BME280;37162;41.724;13.346;2022-11-15T05:05:16;97020.09;;;17.08;57.51
51123;BME280;37162;41.724;13.346;2022-11-15T05:07:41;97008.38;;;17.02;57.48
51123;BME280;37162;41.724;13.346;2022-11-15T05:10:07;97012.13;;;17.01;57.03
51123;BME280;37162;41.724;13.346;2022-11-15T05:12:32;97023.00;;;17.06;57.24
51123;BME280;37162;41.724;13.346;2022-11-15T05:14:58;97014.94;;;17.06;57.22
51123;BME280;37162;41.724;13.346;2022-11-15T05:17:23;97020.31;;;17.06;57.64
51123;BME280;37162;41.724;13.346;2022-11-15T05:19:49;97015.19;;;17.05;57.45
51123;BME280;37162;41.724;13.346;2022-11-15T05:22:14;97019.50;;;17.06;57.22
51123;BME280;37162;41.724;13.346;2022-11-15T05:24:39;97019.50;;;17.06;57.02
51123;BME280;37162;41.724;13.346;2022-11-15T05:27:05;97012.94;;;17.02;56.90
51123;BME280;37162;41.724;13.346;2022-11-15T05:29:30;97015.19;;;17.05;57.29
51123;BME280;37162;41.724;13.346;2022-11-15T05:31:56;97017.63;;;17.06;57.09
51123;BME280;37162;41.724;13.346;2022-11-15T05:34:21;97003.50;;;16.99;57.09
51123;BME280;37162;41.724;13.346;2022-11-15T05:36:48;97023.81;;;17.07;57.54
51123;BME280;37162;41.724;13.346;2022-11-15T05:39:14;97018.44;;;17.07;57.50
51123;BME280;37162;41.724;13.346;2022-11-15T05:41:46;97016.56;;;17.07;57.56
51123;BME280;37162;41.724;13.346;2022-11-15T05:44:14;97018.44;;;17.07;57.60
51123;BME280;37162;41.724;13.346;2022-11-15T05:46:41;97002.56;;;17.05;57.75
51123;BME280;37162;41.724;13.346;2022-11-15T05:49:11;97026.28;;;17.08;57.49
51123;BME280;37162;41.724;13.346;2022-11-15T05:51:39;97031.03;;;17.06;57.41
51123;BME280;37162;41.724;13.346;2022-11-15T05:54:05;97023.47;;;17.03;57.62
51123;BME280;37162;41.724;13.346;2022-11-15T05:56:30;97031.03;;;17.06;57.71
51123;BME280;37162;41.724;13.346;2022-11-15T05:58:57;97025.91;;;17.05;57.46
51123;BME280;37162;41.724;13.346;2022-11-15T06:01:24;97021.47;;;16.99;57.03
51123;BME280;37162;41.724;13.346;2022-11-15T06:03:50;97038.53;;;17.04;57.49
51123;BME280;37162;41.724;13.346;2022-11-15T06:06:16;97029.66;;;17.04;57.25
51123;BME280;37162;41.724;13.346;2022-11-15T06:08:41;97031.53;;;17.03;57.07
51123;BME280;37162;41.724;13.346;2022-11-15T06:11:07;97041.66;;;17.01;57.12
51123;BME280;37162;41.724;13.346;2022-11-15T06:13:33;97057.50;;;17.03;57.38
51123;BME280;37162;41.724;13.346;2022-11-15T06:15:59;97050.50;;;17.02;57.49
51123;BME280;37162;41.724;13.346;2022-11-15T06:18:24;97055.88;;;17.02;57.35
51123;BME280;37162;41.724;13.346;2022-11-15T06:20:50;97058.19;;;16.98;56.88
51123;BME280;37162;41.724;13.346;2022-11-15T06:23:16;97056.56;;;16.97;56.86
51123;BME280;37162;41.724;13.346;2022-11-15T06:25:41;97072.81;;;17.02;57.73
51123;BME280;37162;41.724;13.346;2022-11-15T06:28:07;97068.25;;;17.03;57.30
51123;BME280;37162;41.724;13.346;2022-11-15T06:30:32;97055.69;;;17.03;57.40
51123;BME280;37162;41.724;13.346;2022-11-15T06:33:02;97042.25;;;17.03;57.49
51123;BME280;37162;41.724;13.346;2022-11-15T06:35:28;97041.06;;;16.99;57.57
51123;BME280;37162;41.724;13.346;2022-11-15T06:37:54;97055.31;;;17.00;57.52
51123;BME280;37162;41.724;13.346;2022-11-15T06:40:20;97049.47;;;17.03;57.61
51123;BME280;37162;41.724;13.346;2022-11-15T06:42:45;97053.00;;;17.03;57.62
51123;BME280;37162;41.724;13.346;2022-11-15T06:45:10;97050.38;;;16.97;57.55
51123;BME280;37162;41.724;13.346;2022-11-15T06:47:44;97055.88;;;17.02;57.61
51123;BME280;37162;41.724;13.346;2022-11-15T06:50:09;97061.25;;;17.02;57.41
51123;BME280;37162;41.724;13.346;2022-11-15T06:52:35;97060.44;;;17.01;57.23
51123;BME280;37162;41.724;13.346;2022-11-15T06:55:00;97050.50;;;17.02;56.91
51123;BME280;37162;41.724;13.346;2022-11-15T06:57:25;97061.25;;;17.02;57.00
51123;BME280;37162;41.724;13.346;2022-11-15T06:59:51;97063.94;;;17.02;57.08
51123;BME280;37162;41.724;13.346;2022-11-15T07:02:16;97067.66;;;17.01;57.02
51123;BME280;37162;41.724;13.346;2022-11-15T07:04:41;97058.66;;;16.95;57.13
51123;BME280;37162;41.724;13.346;2022-11-15T07:07:07;97063.94;;;17.02;56.95
51123;BME280;37162;41.724;13.346;2022-11-15T07:09:32;97068.50;;;17.01;57.15
51123;BME280;37162;41.724;13.346;2022-11-15T07:11:59;97072.81;;;17.02;56.95
51123;BME280;37162;41.724;13.346;2022-11-15T07:14:24;97080.84;;;17.02;57.13
51123;BME280;37162;41.724;13.346;2022-11-15T07:16:50;97075.72;;;17.01;57.14
51123;BME280;37162;41.724;13.346;2022-11-15T07:19:15;97061.13;;;16.97;57.32
51123;BME280;37162;41.724;13.346;2022-11-15T07:21:40;97067.66;;;17.01;56.95
51123;BME280;37162;41.724;13.346;2022-11-15T07:24:06;97073.84;;;17.01;57.03
51123;BME280;37162;41.724;13.346;2022-11-15T07:26:31;97077.59;;;17.00;57.28
51123;BME280;37162;41.724;13.346;2022-11-15T07:28:57;97059.34;;;16.91;57.48
51123;BME280;37162;41.724;13.346;2022-11-15T07:31:22;97082.72;;;17.02;57.24
51123;BME280;37162;41.724;13.346;2022-11-15T07:33:48;97092.41;;;17.03;57.23
51123;BME280;37162;41.724;13.346;2022-11-15T07:36:13;97093.25;;;17.03;57.33
51123;BME280;37162;41.724;13.346;2022-11-15T07:38:38;97081.78;;;16.96;57.09
51123;BME280;37162;41.724;13.346;2022-11-15T07:41:05;97084.16;;;17.04;56.88
51123;BME280;37162;41.724;13.346;2022-11-15T07:43:31;97074.22;;;17.05;56.87
51123;BME280;37162;41.724;13.346;2022-11-15T07:46:03;97074.00;;;17.06;57.08
51123;BME280;37162;41.724;13.346;2022-11-15T07:48:29;97072.59;;;17.04;56.97
51123;BME280;37162;41.724;13.346;2022-11-15T07:50:55;97067.56;;;17.07;56.97
51123;BME280;37162;41.724;13.346;2022-11-15T07:53:20;97060.38;;;17.08;57.23
51123;BME280;37162;41.724;13.346;2022-11-15T07:55:45;97041.28;;;16.98;57.07
51123;BME280;37162;41.724;13.346;2022-11-15T07:58:11;97060.13;;;17.09;56.98
51123;BME280;37162;41.724;13.346;2022-11-15T08:00:38;97058.16;;;17.17;56.87
51123;BME280;37162;41.724;13.346;2022-11-15T08:03:08;97046.97;;;17.20;56.76
51123;BME280;37162;41.724;13.346;2022-11-15T08:05:35;97059.63;;;17.31;56.73
51123;BME280;37162;41.724;13.346;2022-11-15T08:08:01;97055.22;;;17.36;56.58
51123;BME280;37162;41.724;13.346;2022-11-15T08:10:27;97057.81;;;17.43;56.38
51123;BME280;37162;41.724;13.346;2022-11-15T08:13:00;97036.19;;;17.38;56.05
51123;BME280;37162;41.724;13.346;2022-11-15T08:15:26;97058.56;;;17.50;55.94
51123;BME280;37162;41.724;13.346;2022-11-15T08:17:57;97063.69;;;17.52;56.32
51123;BME280;37162;41.724;13.346;2022-11-15T08:20:23;97061.00;;;17.52;56.19
51123;BME280;37162;41.724;13.346;2022-11-15T08:22:49;97059.94;;;17.53;56.33
51123;BME280;37162;41.724;13.346;2022-11-15T08:37:35;97033.44;;;17.98;54.67
51123;BME280;37162;41.724;13.346;2022-11-15T08:40:00;97039.72;;;17.80;55.09
51123;BME280;37162;41.724;13.346;2022-11-15T08:42:26;97051.72;;;17.78;55.58
51123;BME280;37162;41.724;13.346;2022-11-15T08:44:52;97055.19;;;17.67;55.90
51123;BME280;37162;41.724;13.346;2022-11-15T08:47:17;97051.09;;;17.64;56.17
51123;BME280;37162;41.724;13.346;2022-11-15T08:49:42;97052.38;;;17.61;56.21
51123;BME280;37162;41.724;13.346;2022-11-15T08:52:08;97056.56;;;17.57;56.24
51123;BME280;37162;41.724;13.346;2022-11-15T08:54:33;97047.09;;;17.55;56.53
51123;BME280;37162;41.724;13.346;2022-11-15T08:56:59;97048.50;;;17.46;56.67
51123;BME280;37162;41.724;13.346;2022-11-15T08:59:24;97063.69;;;17.52;56.73
51123;BME280;37162;41.724;13.346;2022-11-15T09:01:49;97068.44;;;17.50;56.67
51123;BME280;37162;41.724;13.346;2022-11-15T09:04:15;97060.06;;;17.46;56.77
51123;BME280;37162;41.724;13.346;2022-11-15T09:06:40;97062.13;;;17.44;56.98
51123;BME280;37162;41.724;13.346;2022-11-15T09:09:06;97057.81;;;17.43;56.95
51123;BME280;37162;41.724;13.346;2022-11-15T09:11:31;97061.56;;;17.42;56.86
51123;BME280;37162;41.724;13.346;2022-11-15T09:13:57;97063.44;;;17.42;57.15
51123;BME280;37162;41.724;13.346;2022-11-15T09:16:22;97050.88;;;17.35;57.09
51123;BME280;37162;41.724;13.346;2022-11-15T09:18:48;97042.13;;;17.28;57.24
51123;BME280;37162;41.724;13.346;2022-11-15T09:21:13;97062.25;;;17.37;57.17
51123;BME280;37162;41.724;13.346;2022-11-15T09:23:39;97046.19;;;17.31;57.37
51123;BME280;37162;41.724;13.346;2022-11-15T09:26:05;97053.56;;;17.35;57.55
51123;BME280;37162;41.724;13.346;2022-11-15T09:28:31;97049.94;;;17.30;57.48
51123;BME280;37162;41.724;13.346;2022-11-15T09:30:59;97066.41;;;17.33;57.34
51123;BME280;37162;41.724;13.346;2022-11-15T09:33:25;97075.53;;;17.32;57.65
51123;BME280;37162;41.724;13.346;2022-11-15T09:35:51;97061.97;;;17.27;57.26
51123;BME280;37162;41.724;13.346;2022-11-15T09:38:16;97059.28;;;17.27;57.63
51123;BME280;37162;41.724;13.346;2022-11-15T09:40:42;97065.22;;;17.29;57.74
51123;BME280;37162;41.724;13.346;2022-11-15T09:46:24;97062.78;;;17.28;57.79
51123;BME280;37162;41.724;13.346;2022-11-15T09:48:55;97047.34;;;17.23;57.79
51123;BME280;37162;41.724;13.346;2022-11-15T09:51:26;97053.91;;;17.27;57.90
51123;BME280;37162;41.724;13.346;2022-11-15T09:54:03;97047.72;;;17.27;58.07
51123;BME280;37162;41.724;13.346;2022-11-15T09:56:32;97046.06;;;17.26;58.33
51123;BME280;37162;41.724;13.346;2022-11-15T09:59:14;97041.75;;;17.25;57.99
51123;BME280;37162;41.724;13.346;2022-11-15T10:04:23;97045.50;;;17.24;58.18
51123;BME280;37162;41.724;13.346;2022-11-15T10:06:58;97038.50;;;17.23;58.05
51123;BME280;37162;41.724;13.346;2022-11-15T10:09:40;97029.38;;;17.24;58.12
51123;BME280;37162;41.724;13.346;2022-11-15T10:20:12;97020.50;;;17.23;58.15
51123;BME280;37162;41.724;13.346;2022-11-15T10:22:46;97017.00;;;17.23;58.58
51123;BME280;37162;41.724;13.346;2022-11-15T10:27:40;97006.25;;;17.23;58.33
51123;BME280;37162;41.724;13.346;2022-11-15T10:30:12;96999.03;;;17.23;58.41
51123;BME280;37162;41.724;13.346;2022-11-15T10:32:40;96999.84;;;17.24;58.37
51123;BME280;37162;41.724;13.346;2022-11-15T10:35:26;96989.09;;;17.24;58.45
51123;BME280;37162;41.724;13.346;2022-11-15T10:38:04;96980.44;;;17.22;58.51
51123;BME280;37162;41.724;13.346;2022-11-15T10:40:30;96984.09;;;17.27;58.34
51123;BME280;37162;41.724;13.346;2022-11-15T10:43:17;96984.69;;;17.29;58.28
51123;BME280;37162;41.724;13.346;2022-11-15T10:45:44;96972.53;;;17.27;58.46
51123;BME280;37162;41.724;13.346;2022-11-15T10:50:40;96972.44;;;17.33;58.34
51123;BME280;37162;41.724;13.346;2022-11-15T10:55:46;96968.25;;;17.37;58.42
51123;BME280;37162;41.724;13.346;2022-11-15T11:00:47;96964.50;;;17.38;58.32
51123;BME280;37162;41.724;13.346;2022-11-15T11:03:33;96957.25;;;17.39;58.82
51123;BME280;37162;41.724;13.346;2022-11-15T11:06:18;96944.63;;;17.40;58.49
51123;BME280;37162;41.724;13.346;2022-11-15T11:08:58;96938.47;;;17.39;58.58
51123;BME280;37162;41.724;13.346;2022-11-15T11:11:24;96942.78;;;17.40;59.00
51123;BME280;37162;41.724;13.346;2022-11-15T11:13:50;96939.88;;;17.42;59.05
51123;BME280;37162;41.724;13.346;2022-11-15T11:16:49;96937.19;;;17.42;58.89
51123;BME280;37162;41.724;13.346;2022-11-15T11:24:43;96919.22;;;17.42;58.75
51123;BME280;37162;41.724;13.346;2022-11-15T11:40:53;96911.16;;;17.42;59.23
51123;BME280;37162;41.724;13.346;2022-11-15T11:43:27;96913.22;;;17.40;59.49
51123;BME280;37162;41.724;13.346;2022-11-15T11:49:09;96910.53;;;17.40;59.25
51123;BME280;37162;41.724;13.346;2022-11-15T11:51:42;96914.88;;;17.41;59.52
51123;BME280;37162;41.724;13.346;2022-11-15T11:54:17;96909.53;;;17.41;59.59
51123;BME280;37162;41.724;13.346;2022-11-15T11:56:45;96902.97;;;17.37;59.63
51123;BME280;37162;41.724;13.346;2022-11-15T12:02:16;96889.88;;;17.41;60.00
51123;BME280;37162;41.724;13.346;2022-11-15T12:04:48;96890.94;;;17.40;60.10
51123;BME280;37162;41.724;13.346;2022-11-15T12:07:28;96885.56;;;17.40;60.02
51123;BME280;37162;41.724;13.346;2022-11-15T12:15:24;96882.06;;;17.39;59.52
51123;BME280;37162;41.724;13.346;2022-11-15T12:17:51;96875.88;;;17.38;59.53
51123;BME280;37162;41.724;13.346;2022-11-15T12:20:20;96856.38;;;17.31;59.57
51123;BME280;37162;41.724;13.346;2022-11-15T12:23:12;96868.06;;;17.37;59.59
51123;BME280;37162;41.724;13.346;2022-11-15T12:26:02;96864.56;;;17.36;59.56
51123;BME280;37162;41.724;13.346;2022-11-15T12:28:40;96865.38;;;17.37;59.46
51123;BME280;37162;41.724;13.346;2022-11-15T12:33:56;96857.53;;;17.35;59.39
51123;BME280;37162;41.724;13.346;2022-11-15T12:41:15;96851.34;;;17.35;59.54
51123;BME280;37162;41.724;13.346;2022-11-15T12:43:43;96852.16;;;17.35;59.81
51123;BME280;37162;41.724;13.346;2022-11-15T12:48:53;96840.03;;;17.33;59.61
51123;BME280;37162;41.724;13.346;2022-11-15T12:51:21;96818.06;;;17.24;59.69
51123;BME280;37162;41.724;13.346;2022-11-15T12:53:47;96835.47;;;17.33;59.69
51123;BME280;37162;41.724;13.346;2022-11-15T12:58:59;96825.78;;;17.32;60.19
51123;BME280;37162;41.724;13.346;2022-11-15T13:19:47;96803.38;;;17.27;60.26
51123;BME280;37162;41.724;13.346;2022-11-15T13:22:14;96815.03;;;17.32;60.19
51123;BME280;37162;41.724;13.346;2022-11-15T13:25:00;96808.06;;;17.31;60.19
51123;BME280;37162;41.724;13.346;2022-11-15T13:27:26;96814.00;;;17.33;60.18
51123;BME280;37162;41.724;13.346;2022-11-15T13:29:52;96807.56;;;17.34;60.06
51123;BME280;37162;41.724;13.346;2022-11-15T13:32:18;96804.88;;;17.34;60.35
51123;BME280;37162;41.724;13.346;2022-11-15T13:34:49;96811.06;;;17.35;60.30
51123;BME280;37162;41.724;13.346;2022-11-15T13:39:47;96787.59;;;17.30;60.43
51123;BME280;37162;41.724;13.346;2022-11-15T13:42:18;96793.06;;;17.35;60.44
51123;BME280;37162;41.724;13.346;2022-11-15T13:44:58;96792.06;;;17.36;60.31
51123;BME280;37162;41.724;13.346;2022-11-15T13:47:28;96792.88;;;17.37;60.34
51123;BME280;37162;41.724;13.346;2022-11-15T13:49:56;96789.38;;;17.36;60.81
51123;BME280;37162;41.724;13.346;2022-11-15T13:52:27;96792.06;;;17.36;60.69
51123;BME280;37162;41.724;13.346;2022-11-15T13:57:30;96782.34;;;17.35;60.67
51123;BME280;37162;41.724;13.346;2022-11-15T14:00:04;96780.34;;;17.31;60.48
51123;BME280;37162;41.724;13.346;2022-11-15T14:02:33;96778.28;;;17.33;60.43
51123;BME280;37162;41.724;13.346;2022-11-15T14:05:14;96781.31;;;17.36;60.39
51123;BME280;37162;41.724;13.346;2022-11-15T14:08:21;96776.97;;;17.35;60.75
51123;BME280;37162;41.724;13.346;2022-11-15T14:10:37;96784.81;;;17.37;60.53
51123;BME280;37162;41.724;13.346;2022-11-15T14:13:04;96777.56;;;17.37;60.58
51123;BME280;37162;41.724;13.346;2022-11-15T14:15:37;96775.94;;;17.36;60.67
51123;BME280;37162;41.724;13.346;2022-11-15T14:18:04;96772.09;;;17.32;60.68
51123;BME280;37162;41.724;13.346;2022-11-15T14:22:58;96762.72;;;17.35;60.49
51123;BME280;37162;41.724;13.346;2022-11-15T14:25:28;96764.34;;;17.36;60.60
51123;BME280;37162;41.724;13.346;2022-11-15T14:28:28;96763.31;;;17.37;60.73
51123;BME280;37162;41.724;13.346;2022-11-15T14:30:56;96755.72;;;17.34;60.74
51123;BME280;37162;41.724;13.346;2022-11-15T14:33:41;96760.28;;;17.33;60.82
51123;BME280;37162;41.724;13.346;2022-11-15T14:36:12;96758.41;;;17.34;61.02
51123;BME280;37162;41.724;13.346;2022-11-15T14:38:38;96759.81;;;17.36;61.15
51123;BME280;37162;41.724;13.346;2022-11-15T14:41:04;96752.47;;;17.32;61.47
51123;BME280;37162;41.724;13.346;2022-11-15T14:43:29;96762.25;;;17.38;61.17
51123;BME280;37162;41.724;13.346;2022-11-15T14:45:55;96756.91;;;17.38;61.36
51123;BME280;37162;41.724;13.346;2022-11-15T14:48:20;96756.91;;;17.38;61.40
51123;BME280;37162;41.724;13.346;2022-11-15T14:50:47;96746.03;;;17.33;61.35
51123;BME280;37162;41.724;13.346;2022-11-15T14:53:17;96757.94;;;17.37;61.34
51123;BME280;37162;41.724;13.346;2022-11-15T14:55:43;96746.50;;;17.30;60.97
51123;BME280;37162;41.724;13.346;2022-11-15T14:58:09;96743.94;;;17.35;61.13
51123;BME280;37162;41.724;13.346;2022-11-15T15:00:39;96750.72;;;17.37;60.91
51123;BME280;37162;41.724;13.346;2022-11-15T15:03:05;96742.88;;;17.36;61.01
51123;BME280;37162;41.724;13.346;2022-11-15T15:05:36;96741.03;;;17.36;60.86
51123;BME280;37162;41.724;13.346;2022-11-15T15:08:03;96739.38;;;17.35;60.92
51123;BME280;37162;41.724;13.346;2022-11-15T15:10:39;96735.88;;;17.35;60.81
51123;BME280;37162;41.724;13.346;2022-11-15T15:13:21;96735.06;;;17.34;61.00